createdAt,value
2022-10-17T00:02:21.503Z,14.10
2022-10-17T00:04:48.136Z,14.10
2022-10-17T00:07:14.796Z,14.00
2022-10-17T00:09:44.587Z,13.90
2022-10-17T00:12:11.368Z,13.80
2022-10-17T00:14:38.274Z,13.80
2022-10-17T00:17:05.150Z,13.70
2022-10-17T00:19:31.866Z,13.70
2022-10-17T00:21:58.559Z,13.70
2022-10-17T00:24:25.339Z,13.60
2022-10-17T00:26:52.028Z,13.60
2022-10-17T00:29:18.712Z,13.60
2022-10-17T00:31:45.460Z,13.60
2022-10-17T00:34:12.191Z,13.50
2022-10-17T00:36:38.859Z,13.50
2022-10-17T00:39:05.710Z,13.50
2022-10-17T00:41:33.884Z,13.40
2022-10-17T00:44:06.002Z,13.40
2022-10-17T00:46:38.119Z,13.30
2022-10-17T00:49:08.537Z,13.30
2022-10-17T00:51:42.519Z,13.20
2022-10-17T00:54:10.135Z,13.20
2022-10-17T00:56:38.326Z,13.20
2022-10-17T01:01:31.724Z,13.20
2022-10-17T01:03:58.608Z,13.20
2022-10-17T01:06:25.302Z,13.20
2022-10-17T01:08:52.412Z,13.20
2022-10-17T01:11:32.833Z,13.20
2022-10-17T01:14:13.665Z,13.20
2022-10-17T01:16:40.215Z,13.20
2022-10-17T01:19:38.701Z,13.20
2022-10-17T01:22:19.959Z,13.20
2022-10-17T01:25:04.695Z,13.10
2022-10-17T01:27:44.176Z,13.20
2022-10-17T01:30:50.065Z,13.20
2022-10-17T01:33:25.727Z,13.20
2022-10-17T01:36:27.294Z,13.20
2022-10-17T01:39:02.137Z,13.10
2022-10-17T01:41:43.759Z,13.20
2022-10-17T01:44:13.417Z,13.10
2022-10-17T01:46:54.519Z,13.20
2022-10-17T01:49:24.660Z,13.20
2022-10-17T01:52:00.872Z,13.20
2022-10-17T01:54:51.262Z,13.20
2022-10-17T01:57:54.733Z,13.20
2022-10-17T02:00:25.017Z,13.20
2022-10-17T02:03:04.644Z,13.20
2022-10-17T02:05:36.778Z,13.10
2022-10-17T02:08:03.768Z,13.20
2022-10-17T02:10:45.900Z,13.20
2022-10-17T02:13:34.876Z,13.10
2022-10-17T02:16:35.035Z,13.20
2022-10-17T02:19:15.195Z,13.20
2022-10-17T02:22:09.769Z,13.20
2022-10-17T02:24:51.717Z,13.20
2022-10-17T02:27:31.869Z,13.10
2022-10-17T02:30:13.832Z,13.10
2022-10-17T02:33:08.071Z,13.10
2022-10-17T02:35:38.716Z,13.10
2022-10-17T02:38:09.001Z,13.10
2022-10-17T02:40:37.299Z,13.10
2022-10-17T02:43:04.584Z,13.00
2022-10-17T02:45:35.975Z,13.00
2022-10-17T02:48:28.005Z,13.00
2022-10-17T02:50:57.423Z,13.00
2022-10-17T02:53:36.019Z,13.00
2022-10-17T02:56:05.477Z,13.00
2022-10-17T02:58:35.007Z,13.00
2022-10-17T03:01:02.128Z,13.00
2022-10-17T03:03:31.410Z,13.00
2022-10-17T03:05:58.189Z,13.00
2022-10-17T03:08:25.543Z,13.00
2022-10-17T03:10:52.270Z,13.00
2022-10-17T03:13:19.376Z,13.10
2022-10-17T03:15:46.715Z,13.10
2022-10-17T03:18:13.765Z,13.00
2022-10-17T03:20:40.471Z,13.00
2022-10-17T03:23:07.166Z,13.00
2022-10-17T03:25:33.764Z,13.00
2022-10-17T03:28:01.585Z,13.00
2022-10-17T03:30:29.196Z,13.10
2022-10-17T03:32:57.806Z,13.10
2022-10-17T03:35:25.420Z,13.10
2022-10-17T03:37:52.114Z,13.10
2022-10-17T03:40:18.866Z,13.10
2022-10-17T03:42:45.499Z,13.10
2022-10-17T03:45:12.213Z,13.10
2022-10-17T03:47:38.811Z,13.20
2022-10-17T03:50:06.015Z,13.20
2022-10-17T03:52:32.713Z,13.30
2022-10-17T03:54:59.411Z,13.40
2022-10-17T03:57:26.093Z,13.50
2022-10-17T03:59:52.883Z,13.50
2022-10-17T04:02:19.604Z,13.70
2022-10-17T04:04:46.266Z,13.80
2022-10-17T04:07:12.872Z,13.90
2022-10-17T04:09:39.467Z,13.90
2022-10-17T04:12:06.156Z,14.00
2022-10-17T04:14:32.898Z,14.00
2022-10-17T04:16:59.560Z,14.00
2022-10-17T04:19:26.218Z,14.10
2022-10-17T04:21:52.926Z,14.10
2022-10-17T04:24:19.659Z,14.10
2022-10-17T04:26:48.836Z,14.20
2022-10-17T04:29:15.559Z,14.20
2022-10-17T04:31:42.286Z,14.20
2022-10-17T04:34:09.047Z,14.30
2022-10-17T04:36:35.713Z,14.30
2022-10-17T04:39:05.022Z,14.30
2022-10-17T04:41:31.954Z,14.30
2022-10-17T04:43:58.563Z,14.40
2022-10-17T04:46:25.278Z,14.40
2022-10-17T04:48:51.963Z,14.40
2022-10-17T04:51:21.808Z,14.40
2022-10-17T04:53:51.195Z,14.40
2022-10-17T04:56:21.079Z,14.40
2022-10-17T04:58:48.403Z,14.40
2022-10-17T05:01:18.320Z,14.40
2022-10-17T05:03:45.748Z,14.50
2022-10-17T05:06:15.510Z,14.40
2022-10-17T05:08:42.996Z,14.40
2022-10-17T05:11:27.392Z,14.40
2022-10-17T05:13:56.452Z,14.40
2022-10-17T05:16:23.647Z,14.40
2022-10-17T05:18:53.078Z,14.50
2022-10-17T05:21:21.428Z,14.50
2022-10-17T05:23:48.215Z,14.50
2022-10-17T05:26:15.128Z,14.50
2022-10-17T05:28:41.889Z,14.60
2022-10-17T05:31:10.467Z,14.60
2022-10-17T05:33:37.688Z,14.60
2022-10-17T05:36:05.468Z,14.60
2022-10-17T05:38:32.547Z,14.60
2022-10-17T05:41:00.718Z,14.60
2022-10-17T05:43:28.274Z,14.70
2022-10-17T05:45:55.629Z,14.70
2022-10-17T05:48:23.803Z,14.80
2022-10-17T05:50:57.055Z,14.80
2022-10-17T05:53:23.741Z,14.90
2022-10-17T05:56:01.127Z,14.90
2022-10-17T06:01:15.482Z,14.90
2022-10-17T06:03:42.184Z,14.90
2022-10-17T06:06:12.938Z,14.90
2022-10-17T06:08:39.680Z,15.00
2022-10-17T06:11:09.899Z,15.00
2022-10-17T06:13:37.744Z,15.00
2022-10-17T06:16:04.544Z,15.00
2022-10-17T06:18:31.217Z,15.00
2022-10-17T06:21:10.432Z,15.10
2022-10-17T06:23:37.316Z,15.00
2022-10-17T06:26:05.883Z,15.10
2022-10-17T06:28:35.290Z,15.00
2022-10-17T06:31:10.445Z,15.10
2022-10-17T06:33:37.814Z,15.10
2022-10-17T06:36:06.196Z,15.10
2022-10-17T06:38:34.610Z,15.10
2022-10-17T06:41:19.567Z,15.10
2022-10-17T06:43:47.287Z,15.10
2022-10-17T06:46:15.926Z,15.20
2022-10-17T06:48:42.962Z,15.20
2022-10-17T06:51:11.296Z,15.20
2022-10-17T06:53:39.287Z,15.30
2022-10-17T06:56:07.847Z,15.30
2022-10-17T06:58:39.072Z,15.30
2022-10-17T07:01:12.023Z,15.30
2022-10-17T07:03:40.156Z,15.30
2022-10-17T07:06:07.332Z,15.30
2022-10-17T07:08:34.079Z,15.30
2022-10-17T07:11:09.833Z,15.30
2022-10-17T07:13:39.131Z,15.40
2022-10-17T07:16:06.755Z,15.40
2022-10-17T07:18:33.471Z,15.60
2022-10-17T07:21:00.392Z,15.70
2022-10-17T07:23:27.545Z,15.80
2022-10-17T07:26:00.459Z,16.00
2022-10-17T07:28:28.764Z,16.20
2022-10-17T07:30:55.540Z,16.40
2022-10-17T07:33:22.287Z,16.60
2022-10-17T07:35:49.006Z,16.70
2022-10-17T07:38:15.598Z,16.90
2022-10-17T07:40:42.504Z,17.00
2022-10-17T07:43:09.136Z,17.10
2022-10-17T07:45:35.833Z,17.10
2022-10-17T07:48:02.585Z,17.20
2022-10-17T07:50:29.242Z,17.10
2022-10-17T07:52:55.832Z,17.00
2022-10-17T07:55:22.524Z,17.00
2022-10-17T07:57:49.148Z,17.00
2022-10-17T08:00:15.790Z,16.90
2022-10-17T08:02:42.460Z,16.90
2022-10-17T08:05:09.331Z,16.90
2022-10-17T08:07:36.088Z,16.80
2022-10-17T08:10:03.022Z,16.90
2022-10-17T08:12:32.815Z,16.80
2022-10-17T08:15:02.721Z,16.80
2022-10-17T08:17:30.303Z,16.80
2022-10-17T08:19:56.990Z,16.90
2022-10-17T08:22:23.700Z,17.00
2022-10-17T08:24:50.369Z,17.00
2022-10-17T08:27:21.484Z,17.10
2022-10-17T08:29:48.813Z,17.20
2022-10-17T08:32:15.451Z,17.30
2022-10-17T08:34:42.103Z,17.40
2022-10-17T08:37:08.789Z,17.50
2022-10-17T08:39:35.499Z,17.50
2022-10-17T08:42:30.749Z,17.60
2022-10-17T08:45:00.102Z,17.70
2022-10-17T08:47:39.438Z,17.80
2022-10-17T08:50:10.855Z,17.90
2022-10-17T08:52:52.555Z,18.00
2022-10-17T08:55:28.037Z,18.10
2022-10-17T08:57:54.942Z,18.20
2022-10-17T09:00:22.655Z,18.30
2022-10-17T09:03:13.486Z,18.40
2022-10-17T09:05:43.936Z,18.70
2022-10-17T09:08:55.230Z,19.00
2022-10-17T09:11:36.968Z,19.00
2022-10-17T09:14:25.005Z,19.20
2022-10-17T09:17:04.713Z,19.30
2022-10-17T09:19:39.250Z,19.40
2022-10-17T09:22:20.190Z,19.40
2022-10-17T09:24:58.321Z,19.40
2022-10-17T09:27:38.576Z,19.50
2022-10-17T09:30:44.579Z,19.70
2022-10-17T09:33:34.330Z,20.10
2022-10-17T09:36:08.775Z,20.20
2022-10-17T09:38:45.653Z,20.40
2022-10-17T09:41:45.525Z,20.50
2022-10-17T09:44:16.768Z,20.50
2022-10-17T09:46:53.019Z,20.60
2022-10-17T09:49:28.474Z,20.60
2022-10-17T09:51:55.416Z,20.70
2022-10-17T09:54:29.748Z,20.90
2022-10-17T09:57:04.476Z,20.90
2022-10-17T09:59:38.002Z,21.10
2022-10-17T10:02:25.712Z,21.00
2022-10-17T10:05:06.371Z,21.10
2022-10-17T10:07:37.190Z,21.10
2022-10-17T10:10:07.329Z,21.10
2022-10-17T10:12:37.417Z,21.20
2022-10-17T10:15:34.795Z,21.30
2022-10-17T10:18:02.142Z,21.50
2022-10-17T10:20:37.166Z,21.50
2022-10-17T10:23:19.465Z,21.60
2022-10-17T10:25:56.124Z,21.80
2022-10-17T10:28:29.709Z,21.80
2022-10-17T10:30:58.845Z,21.80
2022-10-17T10:33:28.908Z,21.90
2022-10-17T10:36:07.799Z,22.00
2022-10-17T10:38:35.467Z,22.20
2022-10-17T10:41:05.737Z,22.30
2022-10-17T10:43:40.930Z,22.50
2022-10-17T10:46:22.068Z,22.50
2022-10-17T10:48:56.459Z,22.60
2022-10-17T10:51:43.050Z,22.60
2022-10-17T10:54:28.199Z,22.70
2022-10-17T10:56:58.879Z,22.80
2022-10-17T10:59:37.320Z,22.90
2022-10-17T11:02:24.461Z,23.00
2022-10-17T11:04:58.346Z,23.00
2022-10-17T11:07:40.567Z,23.10
2022-10-17T11:10:49.700Z,23.20
2022-10-17T11:13:29.048Z,23.20
2022-10-17T11:16:04.714Z,23.20
2022-10-17T11:18:56.601Z,23.40
2022-10-17T11:22:12.572Z,23.30
2022-10-17T11:24:56.820Z,23.30
2022-10-17T11:27:24.716Z,23.40
2022-10-17T11:29:51.647Z,23.30
2022-10-17T11:32:26.356Z,23.20
2022-10-17T11:35:03.064Z,22.90
2022-10-17T11:37:40.803Z,22.70
2022-10-17T11:40:21.914Z,22.70
2022-10-17T11:43:03.531Z,22.70
2022-10-17T11:45:36.712Z,22.60
2022-10-17T11:48:12.569Z,22.50
2022-10-17T11:53:59.146Z,22.40
2022-10-17T11:56:42.942Z,22.60
2022-10-17T11:59:47.120Z,22.80
2022-10-17T12:02:42.102Z,23.10
2022-10-17T12:05:39.171Z,23.20
2022-10-17T12:08:09.883Z,23.40
2022-10-17T12:11:01.155Z,23.50
2022-10-17T12:13:30.979Z,23.60
2022-10-17T12:16:19.122Z,23.50
2022-10-17T12:19:02.887Z,23.50
2022-10-17T12:22:03.990Z,23.50
2022-10-17T12:24:45.315Z,23.50
2022-10-17T12:27:34.561Z,23.50
2022-10-17T12:30:04.969Z,23.60
2022-10-17T12:32:46.898Z,23.70
2022-10-17T12:35:22.529Z,23.80
2022-10-17T12:37:49.670Z,23.80
2022-10-17T12:40:35.293Z,23.70
2022-10-17T12:43:03.329Z,23.50
2022-10-17T12:45:48.561Z,23.40
2022-10-17T12:48:34.112Z,23.40
2022-10-17T12:51:35.347Z,23.40
2022-10-17T12:54:07.100Z,23.40
2022-10-17T12:56:47.135Z,23.50
2022-10-17T12:59:29.124Z,23.50
2022-10-17T13:02:00.354Z,23.40
2022-10-17T13:04:28.845Z,23.40
2022-10-17T13:06:59.059Z,23.40
2022-10-17T13:09:36.687Z,23.50
2022-10-17T13:12:06.273Z,23.50
2022-10-17T13:14:34.485Z,23.50
2022-10-17T13:17:04.453Z,23.50
2022-10-17T13:19:40.762Z,23.50
2022-10-17T13:22:18.799Z,23.50
2022-10-17T13:24:46.057Z,23.50
2022-10-17T13:27:25.591Z,23.60
2022-10-17T13:29:53.447Z,23.70
2022-10-17T13:32:20.197Z,23.70
2022-10-17T13:34:46.877Z,23.70
2022-10-17T13:37:15.920Z,23.50
2022-10-17T13:39:55.217Z,23.50
2022-10-17T13:42:27.657Z,23.50
2022-10-17T13:44:55.044Z,23.40
2022-10-17T13:47:30.678Z,23.40
2022-10-17T13:49:59.187Z,23.40
2022-10-17T13:52:29.958Z,23.40
2022-10-17T13:55:16.845Z,23.40
2022-10-17T13:57:44.660Z,23.40
2022-10-17T14:00:22.873Z,23.30
2022-10-17T14:02:49.791Z,23.20
2022-10-17T14:05:21.089Z,23.20
2022-10-17T14:08:12.765Z,23.20
2022-10-17T14:10:42.825Z,23.20
2022-10-17T14:13:24.620Z,23.10
2022-10-17T14:15:53.471Z,23.20
2022-10-17T14:18:25.022Z,23.20
2022-10-17T14:23:44.061Z,23.20
2022-10-17T14:26:26.207Z,23.20
2022-10-17T14:29:18.181Z,23.20
2022-10-17T14:31:44.889Z,23.20
2022-10-17T14:34:27.763Z,23.20
2022-10-17T14:36:55.203Z,23.20
2022-10-17T14:39:26.763Z,23.20
2022-10-17T14:41:54.078Z,23.30
2022-10-17T14:44:34.005Z,23.30
2022-10-17T14:47:30.443Z,23.30
2022-10-17T14:50:01.870Z,23.20
2022-10-17T14:52:30.615Z,23.00
2022-10-17T14:54:59.003Z,22.80
2022-10-17T14:57:31.788Z,22.70
2022-10-17T14:59:58.815Z,22.60
2022-10-17T15:02:27.776Z,22.50
2022-10-17T15:04:54.990Z,22.30
2022-10-17T15:07:22.273Z,22.30
2022-10-17T15:09:50.853Z,22.10
2022-10-17T15:12:25.584Z,22.10
2022-10-17T15:14:53.496Z,21.90
2022-10-17T15:17:28.569Z,21.90
2022-10-17T15:19:56.006Z,21.90
2022-10-17T15:22:23.502Z,21.80
2022-10-17T15:24:50.356Z,21.70
2022-10-17T15:27:22.302Z,21.60
2022-10-17T15:29:49.268Z,21.50
2022-10-17T15:32:16.427Z,21.50
2022-10-17T15:34:43.309Z,21.40
2022-10-17T15:37:22.969Z,21.30
2022-10-17T15:39:53.322Z,21.30
2022-10-17T15:42:28.360Z,21.20
2022-10-17T15:44:55.504Z,21.20
2022-10-17T15:47:28.476Z,21.20
2022-10-17T15:49:55.792Z,21.20
2022-10-17T15:52:23.519Z,21.10
2022-10-17T15:54:50.776Z,21.00
2022-10-17T15:57:29.888Z,21.00
2022-10-17T15:59:59.203Z,21.00
2022-10-17T16:02:26.171Z,20.90
2022-10-17T16:04:53.079Z,20.90
2022-10-17T16:07:20.960Z,20.80
2022-10-17T16:09:47.690Z,20.80
2022-10-17T16:12:36.907Z,20.70
2022-10-17T16:15:04.018Z,20.70
2022-10-17T16:17:30.829Z,20.60
2022-10-17T16:19:57.666Z,20.60
2022-10-17T16:22:32.494Z,20.50
2022-10-17T16:25:07.461Z,20.40
2022-10-17T16:27:34.284Z,20.40
2022-10-17T16:30:01.156Z,20.30
2022-10-17T16:32:28.174Z,20.30
2022-10-17T16:34:55.203Z,20.20
2022-10-17T16:37:21.871Z,20.10
2022-10-17T16:39:52.305Z,20.00
2022-10-17T16:42:20.356Z,20.00
2022-10-17T16:44:48.190Z,19.90
2022-10-17T16:47:15.069Z,19.80
2022-10-17T16:49:44.519Z,19.80
2022-10-17T16:52:12.901Z,19.70
2022-10-17T16:54:39.547Z,19.70
2022-10-17T16:57:06.431Z,19.60
2022-10-17T16:59:33.119Z,19.60
2022-10-17T17:01:59.829Z,19.50
2022-10-17T17:04:26.567Z,19.40
2022-10-17T17:06:53.453Z,19.40
2022-10-17T17:09:20.164Z,19.30
2022-10-17T17:11:46.913Z,19.30
2022-10-17T17:14:13.575Z,19.20
2022-10-17T17:16:40.648Z,19.20
2022-10-17T17:19:10.482Z,19.30
2022-10-17T17:21:37.196Z,19.20
2022-10-17T17:24:04.450Z,19.20
2022-10-17T17:26:36.045Z,19.20
2022-10-17T17:29:03.520Z,19.10
2022-10-17T17:31:31.935Z,19.20
2022-10-17T17:33:58.983Z,19.10
2022-10-17T17:36:31.861Z,19.00
2022-10-17T17:39:00.320Z,18.90
2022-10-17T17:41:27.734Z,18.90
2022-10-17T17:43:54.879Z,18.80
2022-10-17T17:46:23.032Z,18.70
2022-10-17T17:48:51.110Z,18.60
2022-10-17T17:51:25.421Z,18.60
2022-10-17T17:53:55.055Z,18.50
2022-10-17T17:56:27.107Z,18.40
2022-10-17T17:58:59.517Z,18.40
2022-10-17T18:01:28.822Z,18.30
2022-10-17T18:03:58.870Z,18.20
2022-10-17T18:06:26.775Z,18.30
2022-10-17T18:08:57.745Z,18.20
2022-10-17T18:11:25.316Z,18.20
2022-10-17T18:13:57.289Z,18.10
2022-10-17T18:16:25.469Z,18.10
2022-10-17T18:18:52.145Z,18.10
2022-10-17T18:21:19.075Z,18.10
2022-10-17T18:23:47.641Z,18.00
2022-10-17T18:26:15.270Z,17.90
2022-10-17T18:28:43.170Z,17.90
2022-10-17T18:31:24.262Z,17.80
2022-10-17T18:33:52.683Z,17.80
2022-10-17T18:36:20.972Z,17.80
2022-10-17T18:38:48.087Z,17.70
2022-10-17T18:41:17.834Z,17.70
2022-10-17T18:43:46.033Z,17.70
2022-10-17T18:46:25.106Z,17.70
2022-10-17T18:48:51.806Z,17.70
2022-10-17T18:51:21.439Z,17.70
2022-10-17T18:53:50.472Z,17.80
2022-10-17T18:56:18.583Z,17.70
2022-10-17T18:58:45.838Z,17.80
2022-10-17T19:01:19.724Z,17.90
2022-10-17T19:03:48.782Z,18.00
2022-10-17T19:06:19.165Z,18.00
2022-10-17T19:08:46.984Z,18.00
2022-10-17T19:11:25.705Z,18.00
2022-10-17T19:13:53.197Z,17.90
2022-10-17T19:16:24.547Z,17.90
2022-10-17T19:19:15.788Z,17.90
2022-10-17T19:21:42.959Z,17.90
2022-10-17T19:24:14.959Z,17.90
2022-10-17T19:26:43.206Z,17.80
2022-10-17T19:29:12.867Z,17.90
2022-10-17T19:31:39.776Z,17.90
2022-10-17T19:34:06.471Z,17.80
2022-10-17T19:36:34.674Z,17.90
2022-10-17T19:39:07.115Z,17.90
2022-10-17T19:41:34.245Z,17.90
2022-10-17T19:44:01.000Z,17.80
2022-10-17T19:46:29.522Z,17.90
2022-10-17T19:48:56.556Z,17.80
2022-10-17T19:51:24.564Z,17.70
2022-10-17T19:53:52.644Z,17.80
2022-10-17T19:56:20.901Z,17.70
2022-10-17T19:58:48.596Z,17.70
2022-10-17T20:01:18.281Z,17.70
2022-10-17T20:03:45.382Z,17.70
2022-10-17T20:06:12.552Z,17.60
2022-10-17T20:08:40.573Z,17.60
2022-10-17T20:11:12.215Z,17.60
2022-10-17T20:13:39.822Z,17.50
2022-10-17T20:16:08.572Z,17.50
2022-10-17T20:18:35.554Z,17.40
2022-10-17T20:21:05.921Z,17.40
2022-10-17T20:23:32.652Z,17.40
2022-10-17T20:26:08.654Z,17.30
2022-10-17T20:28:45.876Z,17.20
2022-10-17T20:31:13.291Z,17.20
2022-10-17T20:33:41.458Z,17.10
2022-10-17T20:36:10.346Z,17.10
2022-10-17T20:38:37.086Z,17.00
2022-10-17T20:41:06.165Z,17.00
2022-10-17T20:43:34.071Z,17.00
2022-10-17T20:46:09.731Z,17.00
2022-10-17T20:48:52.029Z,17.00
2022-10-17T20:51:19.290Z,16.90
2022-10-17T20:53:46.662Z,16.90
2022-10-17T20:56:25.296Z,16.80
2022-10-17T20:58:53.955Z,16.80
2022-10-17T21:01:21.865Z,16.70
2022-10-17T21:03:49.137Z,16.70
2022-10-17T21:06:16.530Z,16.70
2022-10-17T21:08:43.828Z,16.60
2022-10-17T21:11:14.028Z,16.60
2022-10-17T21:13:41.625Z,16.60
2022-10-17T21:16:17.684Z,16.50
2022-10-17T21:18:45.060Z,16.40
2022-10-17T21:21:15.023Z,16.40
2022-10-17T21:23:44.077Z,16.40
2022-10-17T21:26:12.714Z,16.30
2022-10-17T21:28:44.132Z,16.30
2022-10-17T21:31:25.287Z,16.30
2022-10-17T21:33:54.757Z,16.20
2022-10-17T21:36:22.859Z,16.20
2022-10-17T21:38:51.083Z,16.20
2022-10-17T21:41:19.824Z,16.20
2022-10-17T21:43:47.146Z,16.20
2022-10-17T21:46:16.481Z,16.20
2022-10-17T21:48:44.237Z,16.10
2022-10-17T21:51:15.199Z,16.10
2022-10-17T21:53:42.885Z,16.20
2022-10-17T21:56:12.527Z,16.20
2022-10-17T21:58:39.265Z,16.20
2022-10-17T22:01:12.140Z,16.20
2022-10-17T22:03:44.207Z,16.20
2022-10-17T22:09:02.640Z,16.20
2022-10-17T22:11:31.595Z,16.20
2022-10-17T22:14:07.374Z,16.10
2022-10-17T22:16:34.809Z,16.10
2022-10-17T22:19:06.204Z,16.20
2022-10-17T22:21:35.482Z,16.10
2022-10-17T22:24:06.334Z,16.20
2022-10-17T22:26:35.102Z,16.10
2022-10-17T22:29:02.196Z,16.10
2022-10-17T22:31:28.926Z,16.10
2022-10-17T22:33:56.278Z,16.10
2022-10-17T22:36:23.550Z,16.10
2022-10-17T22:38:50.229Z,16.10
2022-10-17T22:41:17.241Z,16.10
2022-10-17T22:43:44.200Z,16.10
2022-10-17T22:46:13.577Z,16.10
2022-10-17T22:48:40.820Z,16.10
2022-10-17T22:51:07.670Z,16.10
2022-10-17T22:53:35.181Z,16.00
2022-10-17T22:56:04.951Z,16.10
2022-10-17T22:58:34.912Z,16.10
2022-10-17T23:01:02.331Z,16.10
2022-10-17T23:03:30.376Z,16.10
2022-10-17T23:05:57.718Z,16.00
2022-10-17T23:08:25.019Z,16.00
2022-10-17T23:10:51.717Z,16.00
2022-10-17T23:13:19.783Z,16.00
2022-10-17T23:15:46.537Z,16.00
2022-10-17T23:18:13.326Z,16.00
2022-10-17T23:20:39.963Z,16.00
2022-10-17T23:23:08.892Z,16.00
2022-10-17T23:25:35.640Z,16.00
2022-10-17T23:28:02.681Z,16.10
2022-10-17T23:30:31.424Z,16.10
2022-10-17T23:32:58.087Z,16.00
2022-10-17T23:35:24.819Z,16.10
2022-10-17T23:37:51.451Z,16.10
2022-10-17T23:40:18.294Z,16.10
2022-10-17T23:42:45.267Z,16.10
2022-10-17T23:45:12.324Z,16.10
2022-10-17T23:47:39.043Z,16.10
2022-10-17T23:50:06.615Z,16.10
2022-10-17T23:52:33.987Z,16.10
2022-10-17T23:55:00.749Z,16.10
2022-10-17T23:57:27.393Z,16.10
2022-10-17T23:59:54.458Z,16.10
